Time;durP1;ratioP1;P1;durP2;ratioP2;P2;SDS_P1;SDS_P2;PMS_P1;PMS_P2;Temp;Humidity;BMP_temperature;BMP_pressure;BME280_temperature;BME280_humidity;BME280_pressure;Samples;Min_cycle;Max_cycle;Signal;HPM_P1;HPM_P2
2023/08/23 00:01:48;;;;;;;3.88;2.15;;;;;;;;;;5010845;28;20038;-81
2023/08/23 00:04:14;;;;;;;2.38;2.03;;;;;;;;;;5028273;28;20041;-81
2023/08/23 00:06:40;;;;;;;4.63;2.40;;;;;;;;;;5012944;28;20460;-81
2023/08/23 00:09:06;;;;;;;2.75;2.00;;;;;;;;;;5014779;28;20042;-81
2023/08/23 00:11:32;;;;;;;5.72;2.13;;;;;;;;;;5018558;28;20026;-81
2023/08/23 00:13:58;;;;;;;3.45;2.25;;;;;;;;;;4997059;28;20509;-81
2023/08/23 00:16:24;;;;;;;7.97;2.47;;;;;;;;;;5014812;28;20030;-81
2023/08/23 00:18:51;;;;;;;2.60;2.03;;;;;;;;;;5008296;28;20538;-81
2023/08/23 00:21:17;;;;;;;2.70;1.95;;;;;;;;;;5009119;28;20121;-81
2023/08/23 00:23:43;;;;;;;4.47;2.60;;;;;;;;;;5004561;28;20122;-81
2023/08/23 00:26:11;;;;;;;4.55;2.10;;;;;;;;;;5006232;28;20027;-81
2023/08/23 00:28:37;;;;;;;4.72;2.28;;;;;;;;;;5011311;28;20104;-81
2023/08/23 00:31:03;;;;;;;3.70;2.13;;;;;;;;;;5010801;28;20109;-81
2023/08/23 00:33:29;;;;;;;2.45;1.88;;;;;;;;;;5006761;28;20163;-81
2023/08/23 00:35:54;;;;;;;6.40;2.38;;;;;;;;;;5011655;28;20030;-80
2023/08/23 00:38:20;;;;;;;3.17;1.75;;;;;;;;;;5010952;28;20061;-81
2023/08/23 00:40:46;;;;;;;3.13;2.10;;;;;;;;;;5010734;28;20030;-82
2023/08/23 00:43:12;;;;;;;4.18;2.00;;;;;;;;;;5010978;28;20029;-81
2023/08/23 00:45:40;;;;;;;3.63;2.25;;;;;;;;;;5010508;28;21237;-81
2023/08/23 00:48:07;;;;;;;2.63;1.85;;;;;;;;;;5011014;28;20068;-81
2023/08/23 00:50:33;;;;;;;2.35;1.88;;;;;;;;;;5010917;28;20034;-81
2023/08/23 00:53:00;;;;;;;3.15;2.00;;;;;;;;;;5010720;28;20243;-81
2023/08/23 00:55:26;;;;;;;4.05;2.20;;;;;;;;;;5010776;28;20144;-81
2023/08/23 00:57:52;;;;;;;2.20;1.77;;;;;;;;;;5010143;28;20033;-81
2023/08/23 01:00:19;;;;;;;3.28;2.45;;;;;;;;;;5010794;28;20060;-81
2023/08/23 01:02:45;;;;;;;4.68;2.65;;;;;;;;;;5010900;28;20030;-81
2023/08/23 01:05:11;;;;;;;2.30;2.00;;;;;;;;;;5009930;28;20030;-81
2023/08/23 01:07:59;;;;;;;3.60;2.33;;;;;;;;;;5010150;28;20069;-81
2023/08/23 01:10:29;;;;;;;3.30;2.08;;;;;;;;;;5009339;28;20108;-81
2023/08/23 01:13:12;;;;;;;5.85;2.38;;;;;;;;;;5009365;28;20049;-81
2023/08/23 01:15:38;;;;;;;4.18;2.03;;;;;;;;;;5006473;28;20037;-82
2023/08/23 01:18:05;;;;;;;3.15;1.90;;;;;;;;;;5009474;28;20059;-81
2023/08/23 01:20:32;;;;;;;3.67;2.38;;;;;;;;;;5009465;28;20040;-81
2023/08/23 01:23:11;;;;;;;4.78;2.90;;;;;;;;;;5007659;28;20367;-80
2023/08/23 01:25:37;;;;;;;3.47;2.28;;;;;;;;;;5008634;28;20048;-81
2023/08/23 01:28:03;;;;;;;3.13;2.30;;;;;;;;;;5006759;28;20030;-81
2023/08/23 01:30:29;;;;;;;3.15;2.25;;;;;;;;;;5009275;28;20124;-81
2023/08/23 01:33:14;;;;;;;6.68;2.13;;;;;;;;;;5008123;28;20034;-81
2023/08/23 01:35:48;;;;;;;3.47;2.05;;;;;;;;;;5008034;28;20088;-81
2023/08/23 01:38:15;;;;;;;4.43;2.47;;;;;;;;;;5009285;28;20061;-80
2023/08/23 01:40:41;;;;;;;2.88;2.08;;;;;;;;;;5007965;28;20435;-81
2023/08/23 01:43:07;;;;;;;5.57;2.00;;;;;;;;;;5003390;28;20030;-81
2023/08/23 01:45:33;;;;;;;2.80;2.15;;;;;;;;;;5002558;28;20029;-81
2023/08/23 01:47:59;;;;;;;4.85;1.92;;;;;;;;;;5004913;28;20026;-81
2023/08/23 01:50:25;;;;;;;3.38;1.85;;;;;;;;;;5007639;28;20041;-81
2023/08/23 01:52:51;;;;;;;3.72;1.88;;;;;;;;;;5004389;28;20028;-81
2023/08/23 01:55:17;;;;;;;2.67;1.95;;;;;;;;;;5006736;28;20394;-81
2023/08/23 01:57:44;;;;;;;2.28;2.00;;;;;;;;;;5008645;28;20038;-80
2023/08/23 02:00:10;;;;;;;4.03;2.42;;;;;;;;;;5007672;28;20125;-81
2023/08/23 02:02:36;;;;;;;2.70;2.20;;;;;;;;;;5008700;28;20037;-81
2023/08/23 02:05:02;;;;;;;5.20;2.80;;;;;;;;;;5008044;28;20018;-80
2023/08/23 02:07:28;;;;;;;4.28;2.15;;;;;;;;;;5008478;28;20052;-81
2023/08/23 02:09:54;;;;;;;5.50;2.00;;;;;;;;;;5007466;28;20358;-81
2023/08/23 02:12:20;;;;;;;3.03;1.98;;;;;;;;;;5007134;28;20386;-81
2023/08/23 02:14:46;;;;;;;2.50;1.98;;;;;;;;;;5006929;28;21143;-81
2023/08/23 02:17:12;;;;;;;4.30;2.20;;;;;;;;;;5007503;28;20033;-81
2023/08/23 02:19:38;;;;;;;2.83;2.05;;;;;;;;;;5008014;28;20022;-81
2023/08/23 02:22:04;;;;;;;3.17;1.98;;;;;;;;;;5004557;28;20520;-82
2023/08/23 02:24:30;;;;;;;4.10;2.40;;;;;;;;;;5006804;28;20029;-81
2023/08/23 02:26:56;;;;;;;4.32;2.10;;;;;;;;;;5008749;28;20501;-81
2023/08/23 02:29:22;;;;;;;2.70;2.25;;;;;;;;;;5008180;28;20049;-81
2023/08/23 02:31:48;;;;;;;3.95;2.03;;;;;;;;;;5007931;28;20121;-81
2023/08/23 02:34:14;;;;;;;2.58;1.90;;;;;;;;;;5002887;28;20066;-81
2023/08/23 02:36:40;;;;;;;2.92;1.83;;;;;;;;;;5008705;28;20026;-81
2023/08/23 02:39:06;;;;;;;3.35;1.95;;;;;;;;;;5008273;28;20058;-81
2023/08/23 02:41:32;;;;;;;3.25;2.33;;;;;;;;;;5007660;28;20383;-81
2023/08/23 02:43:58;;;;;;;1.63;1.48;;;;;;;;;;5007432;28;20026;-81
2023/08/23 02:46:24;;;;;;;4.15;2.35;;;;;;;;;;5005031;28;20023;-81
2023/08/23 02:48:50;;;;;;;2.80;2.00;;;;;;;;;;5006170;28;20453;-81
2023/08/23 02:51:16;;;;;;;3.22;1.90;;;;;;;;;;5006883;28;20053;-81
2023/08/23 02:53:42;;;;;;;3.65;2.22;;;;;;;;;;5007914;28;20057;-81
2023/08/23 02:56:08;;;;;;;3.03;1.75;;;;;;;;;;4999719;28;20033;-81
2023/08/23 02:58:34;;;;;;;2.40;1.60;;;;;;;;;;5004191;28;20089;-81
2023/08/23 03:01:02;;;;;;;3.55;2.03;;;;;;;;;;4995575;28;20046;-81
2023/08/23 03:03:28;;;;;;;3.47;1.75;;;;;;;;;;5004806;28;20033;-81
2023/08/23 03:05:55;;;;;;;2.67;2.15;;;;;;;;;;4993444;28;20234;-81
2023/08/23 03:08:22;;;;;;;5.32;2.08;;;;;;;;;;5008906;28;20034;-81
2023/08/23 03:10:48;;;;;;;2.42;1.65;;;;;;;;;;5008079;28;20029;-81
2023/08/23 03:13:13;;;;;;;2.15;1.40;;;;;;;;;;5008309;28;20025;-81
2023/08/23 03:15:39;;;;;;;2.53;1.73;;;;;;;;;;5007744;28;20091;-81
2023/08/23 03:18:05;;;;;;;2.78;1.90;;;;;;;;;;5002074;28;20124;-81
2023/08/23 03:20:32;;;;;;;2.78;1.85;;;;;;;;;;5004249;28;20410;-81
2023/08/23 03:22:58;;;;;;;3.05;2.08;;;;;;;;;;5007947;28;20033;-82
2023/08/23 03:25:24;;;;;;;2.65;1.65;;;;;;;;;;5008570;28;20394;-81
2023/08/23 03:27:52;;;;;;;2.53;1.92;;;;;;;;;;5006646;28;20026;-81
2023/08/23 03:30:18;;;;;;;2.88;1.77;;;;;;;;;;5008115;28;20052;-81
2023/08/23 03:32:44;;;;;;;2.47;1.77;;;;;;;;;;5007931;28;20506;-81
2023/08/23 03:35:10;;;;;;;2.90;2.10;;;;;;;;;;5008865;28;20026;-80
2023/08/23 03:37:36;;;;;;;7.40;2.45;;;;;;;;;;5007500;28;20624;-80
2023/08/23 03:40:03;;;;;;;3.72;2.00;;;;;;;;;;5003831;28;20026;-81
2023/08/23 03:42:29;;;;;;;3.65;2.72;;;;;;;;;;5005735;28;20030;-81
2023/08/23 03:44:55;;;;;;;2.90;2.17;;;;;;;;;;5007807;28;20034;-81
2023/08/23 03:47:21;;;;;;;3.95;2.25;;;;;;;;;;5003970;28;20399;-80
2023/08/23 03:49:50;;;;;;;5.78;1.75;;;;;;;;;;5002343;28;20072;-81
2023/08/23 03:52:16;;;;;;;3.10;2.10;;;;;;;;;;5005402;28;20117;-80
2023/08/23 03:54:42;;;;;;;3.85;2.47;;;;;;;;;;5005259;28;20026;-81
2023/08/23 03:57:08;;;;;;;2.80;1.98;;;;;;;;;;5004908;28;20085;-81
2023/08/23 03:59:34;;;;;;;1.80;1.50;;;;;;;;;;5008014;28;20050;-81
2023/08/23 04:02:00;;;;;;;5.28;2.85;;;;;;;;;;5000490;28;20095;-81
2023/08/23 04:04:26;;;;;;;2.30;1.90;;;;;;;;;;5011872;28;20109;-81
2023/08/23 04:06:52;;;;;;;2.78;1.90;;;;;;;;;;5011714;28;20026;-81
2023/08/23 04:09:18;;;;;;;3.75;2.10;;;;;;;;;;5012298;28;20513;-81
2023/08/23 04:11:44;;;;;;;2.42;1.98;;;;;;;;;;5009983;28;20042;-81
2023/08/23 04:14:10;;;;;;;3.22;2.28;;;;;;;;;;5009952;28;20097;-81
2023/08/23 04:16:36;;;;;;;3.20;2.22;;;;;;;;;;5010272;28;20044;-81
2023/08/23 04:19:02;;;;;;;3.42;2.25;;;;;;;;;;5010473;28;20398;-81
2023/08/23 04:21:28;;;;;;;2.92;2.30;;;;;;;;;;5010019;28;20030;-81
2023/08/23 04:23:54;;;;;;;3.33;2.13;;;;;;;;;;5009320;28;20026;-81
2023/08/23 04:26:20;;;;;;;3.90;2.65;;;;;;;;;;5010616;28;20521;-81
2023/08/23 04:28:47;;;;;;;2.30;1.88;;;;;;;;;;5010259;28;20034;-81
2023/08/23 04:31:13;;;;;;;2.63;2.30;;;;;;;;;;5010103;28;20030;-80
2023/08/23 04:33:39;;;;;;;4.00;2.35;;;;;;;;;;5009459;28;20076;-80
2023/08/23 04:36:05;;;;;;;2.70;1.60;;;;;;;;;;5005022;28;20376;-81
2023/08/23 04:38:31;;;;;;;2.42;2.00;;;;;;;;;;5008107;28;20077;-81
2023/08/23 04:41:01;;;;;;;4.88;1.85;;;;;;;;;;5009030;28;20018;-81
2023/08/23 04:43:26;;;;;;;2.70;1.83;;;;;;;;;;5009492;28;20026;-81
2023/08/23 04:45:55;;;;;;;3.97;1.88;;;;;;;;;;5011097;28;20034;-81
2023/08/23 04:48:23;;;;;;;2.95;2.08;;;;;;;;;;5011615;28;20030;-80
2023/08/23 04:50:52;;;;;;;2.50;1.75;;;;;;;;;;5010736;28;20087;-81
2023/08/23 04:53:18;;;;;;;2.00;1.55;;;;;;;;;;5010797;28;20072;-81
2023/08/23 04:55:44;;;;;;;3.05;1.80;;;;;;;;;;5009706;28;20022;-81
2023/08/23 04:58:10;;;;;;;2.25;1.70;;;;;;;;;;5011150;28;20026;-81
2023/08/23 05:00:36;;;;;;;4.07;2.25;;;;;;;;;;5008843;28;21806;-80
2023/08/23 05:03:03;;;;;;;2.70;1.58;;;;;;;;;;5003282;28;20022;-81
2023/08/23 05:05:29;;;;;;;4.13;2.25;;;;;;;;;;5007018;28;20045;-81
2023/08/23 05:07:55;;;;;;;2.35;2.03;;;;;;;;;;5008730;28;20029;-80
2023/08/23 05:10:21;;;;;;;2.53;1.95;;;;;;;;;;5010379;28;20083;-82
2023/08/23 05:12:47;;;;;;;7.53;2.25;;;;;;;;;;5009858;28;20042;-81
2023/08/23 05:15:13;;;;;;;3.42;2.08;;;;;;;;;;5008333;28;20033;-82
2023/08/23 05:17:39;;;;;;;9.35;2.40;;;;;;;;;;5010728;28;20117;-81
2023/08/23 05:20:05;;;;;;;3.03;2.17;;;;;;;;;;5010502;28;20037;-82
2023/08/23 05:22:31;;;;;;;2.85;1.73;;;;;;;;;;5010168;28;20026;-82
2023/08/23 05:24:57;;;;;;;2.85;2.05;;;;;;;;;;5006819;28;20029;-82
2023/08/23 05:27:23;;;;;;;2.75;1.60;;;;;;;;;;5002666;28;20033;-81
2023/08/23 05:29:50;;;;;;;4.70;1.98;;;;;;;;;;5006186;28;20486;-84
2023/08/23 05:32:16;;;;;;;2.90;1.85;;;;;;;;;;5002561;28;20030;-90
2023/08/23 05:34:42;;;;;;;4.70;2.40;;;;;;;;;;5010522;28;20036;-91
2023/08/23 05:37:08;;;;;;;2.70;1.75;;;;;;;;;;5013062;28;20046;-92
2023/08/23 05:39:34;;;;;;;2.33;1.75;;;;;;;;;;5012712;28;20482;-92
2023/08/23 05:41:59;;;;;;;3.72;2.33;;;;;;;;;;5013523;28;20390;-91
2023/08/23 05:44:25;;;;;;;1.90;1.55;;;;;;;;;;5008232;28;20030;-88
2023/08/23 05:46:51;;;;;;;3.30;2.00;;;;;;;;;;5009033;28;20026;-85
2023/08/23 05:49:17;;;;;;;3.58;2.30;;;;;;;;;;5010506;28;20087;-92
2023/08/23 05:51:43;;;;;;;2.35;1.45;;;;;;;;;;5007491;28;20168;-80
2023/08/23 05:54:09;;;;;;;3.38;2.00;;;;;;;;;;5007147;28;20398;-82
2023/08/23 05:56:35;;;;;;;3.42;2.22;;;;;;;;;;5001609;28;20037;-88
2023/08/23 05:59:01;;;;;;;2.15;1.60;;;;;;;;;;5002857;28;20041;-86
2023/08/23 06:01:27;;;;;;;4.30;1.63;;;;;;;;;;5007573;28;20095;-84
2023/08/23 06:03:53;;;;;;;2.13;1.80;;;;;;;;;;5007718;28;20026;-84
2023/08/23 06:06:30;;;;;;;2.25;1.73;;;;;;;;;;5006004;28;20082;-84
2023/08/23 06:08:56;;;;;;;3.67;1.75;;;;;;;;;;5003058;28;20021;-83
2023/08/23 06:11:22;;;;;;;2.75;2.00;;;;;;;;;;5001046;28;20025;-85
2023/08/23 06:13:50;;;;;;;2.65;1.95;;;;;;;;;;5006083;28;20121;-82
2023/08/23 06:16:16;;;;;;;2.03;1.60;;;;;;;;;;5007393;28;20091;-81
2023/08/23 06:18:42;;;;;;;1.75;1.55;;;;;;;;;;5008245;28;20490;-81
2023/08/23 06:21:11;;;;;;;2.05;1.70;;;;;;;;;;5004510;28;20022;-82
2023/08/23 06:23:43;;;;;;;3.28;1.42;;;;;;;;;;5005388;28;20021;-78
2023/08/23 06:26:09;;;;;;;3.05;1.55;;;;;;;;;;5001888;28;20030;-83
2023/08/23 06:28:35;;;;;;;6.13;2.00;;;;;;;;;;5001120;28;20600;-80
2023/08/23 06:31:01;;;;;;;1.88;1.25;;;;;;;;;;4999137;28;20055;-85
2023/08/23 06:33:27;;;;;;;2.50;1.73;;;;;;;;;;5004220;28;20029;-84
2023/08/23 06:35:53;;;;;;;2.22;1.75;;;;;;;;;;5004362;28;20034;-84
2023/08/23 06:38:19;;;;;;;1.75;1.27;;;;;;;;;;5001510;28;20029;-80
2023/08/23 06:40:48;;;;;;;3.80;1.85;;;;;;;;;;5005173;28;20030;-83
2023/08/23 06:43:19;;;;;;;3.30;1.80;;;;;;;;;;5008946;28;20034;-83
2023/08/23 06:45:45;;;;;;;2.55;1.80;;;;;;;;;;4996854;28;20029;-81
2023/08/23 06:48:12;;;;;;;2.90;1.80;;;;;;;;;;5008119;28;20035;-81
2023/08/23 06:50:38;;;;;;;4.95;1.30;;;;;;;;;;5007082;28;20061;-80
2023/08/23 06:53:04;;;;;;;1.73;1.63;;;;;;;;;;5001841;28;20053;-81
2023/08/23 06:55:30;;;;;;;2.03;1.65;;;;;;;;;;5002789;28;20490;-82
2023/08/23 06:57:56;;;;;;;2.90;1.73;;;;;;;;;;5006336;28;20117;-82
2023/08/23 07:00:22;;;;;;;2.25;1.65;;;;;;;;;;5008476;28;20081;-82
2023/08/23 07:02:49;;;;;;;1.50;1.27;;;;;;;;;;5007273;28;20034;-81
2023/08/23 07:05:15;;;;;;;5.60;2.03;;;;;;;;;;5000623;28;20064;-88
2023/08/23 07:07:44;;;;;;;2.45;1.92;;;;;;;;;;5000482;28;20045;-94
2023/08/23 07:10:10;;;;;;;3.22;1.75;;;;;;;;;;4991004;28;20054;-94
2023/08/23 07:12:36;;;;;;;1.80;1.58;;;;;;;;;;5006175;28;20030;-94
2023/08/23 07:15:03;;;;;;;2.85;1.73;;;;;;;;;;5000379;28;20049;-95
2023/08/23 07:17:29;;;;;;;2.95;1.42;;;;;;;;;;5002473;28;20026;-95
2023/08/23 07:19:55;;;;;;;1.90;1.70;;;;;;;;;;4999568;28;20033;-95
2023/08/23 07:22:21;;;;;;;2.15;1.38;;;;;;;;;;5012043;28;20029;-94
2023/08/23 07:24:47;;;;;;;1.95;1.48;;;;;;;;;;5012655;28;20025;-95
2023/08/23 07:27:13;;;;;;;2.35;2.08;;;;;;;;;;5009370;28;20022;-95
2023/08/23 07:29:39;;;;;;;3.53;1.60;;;;;;;;;;4998343;28;20049;-94
2023/08/23 07:32:07;;;;;;;1.80;1.40;;;;;;;;;;5009287;28;20398;-95
2023/08/23 07:34:33;;;;;;;1.92;1.60;;;;;;;;;;5014519;28;20033;-95
2023/08/23 07:36:59;;;;;;;1.67;1.42;;;;;;;;;;5016365;28;20479;-96
2023/08/23 07:39:27;;;;;;;2.50;1.73;;;;;;;;;;5015914;28;20496;-95
2023/08/23 07:41:54;;;;;;;1.67;1.58;;;;;;;;;;5015552;28;20105;-96
2023/08/23 07:44:20;;;;;;;1.98;1.40;;;;;;;;;;5011462;28;20111;-93
2023/08/23 07:46:46;;;;;;;2.47;1.25;;;;;;;;;;5001276;28;20058;-95
2023/08/23 07:49:12;;;;;;;1.98;1.60;;;;;;;;;;5009927;28;20427;-93
2023/08/23 07:51:38;;;;;;;3.20;1.83;;;;;;;;;;5009567;28;20025;-95
2023/08/23 07:54:04;;;;;;;2.15;1.40;;;;;;;;;;5003948;28;20027;-96
2023/08/23 07:56:30;;;;;;;1.88;1.17;;;;;;;;;;5014952;28;20038;-95
2023/08/23 07:58:56;;;;;;;3.17;1.77;;;;;;;;;;5008990;28;20030;-96
2023/08/23 08:01:22;;;;;;;1.85;1.38;;;;;;;;;;5009500;28;20058;-92
2023/08/23 08:03:48;;;;;;;1.23;1.13;;;;;;;;;;5015813;28;20030;-95
2023/08/23 08:06:14;;;;;;;3.95;1.30;;;;;;;;;;5003479;28;20497;-96
2023/08/23 08:08:42;;;;;;;2.25;1.30;;;;;;;;;;5015263;28;20040;-96
2023/08/23 08:11:09;;;;;;;1.50;1.40;;;;;;;;;;5016669;28;20037;-96
2023/08/23 08:13:36;;;;;;;1.67;1.40;;;;;;;;;;5008532;28;20091;-95
2023/08/23 08:16:11;;;;;;;2.78;1.38;;;;;;;;;;5015757;28;20033;-95
2023/08/23 08:18:38;;;;;;;1.30;1.20;;;;;;;;;;5004106;28;20129;-96
2023/08/23 08:21:04;;;;;;;1.75;1.27;;;;;;;;;;5017061;28;20022;-96
2023/08/23 08:23:30;;;;;;;3.30;1.30;;;;;;;;;;5016245;28;20639;-96
2023/08/23 08:25:56;;;;;;;1.95;1.30;;;;;;;;;;5002955;28;20068;-96
2023/08/23 08:28:22;;;;;;;1.70;1.58;;;;;;;;;;5000991;28;20041;-95
2023/08/23 08:30:49;;;;;;;2.75;1.15;;;;;;;;;;5012395;28;20065;-96
2023/08/23 08:33:17;;;;;;;1.58;1.17;;;;;;;;;;5011599;28;20045;-96
2023/08/23 08:35:43;;;;;;;1.27;1.17;;;;;;;;;;5014115;28;20037;-95
2023/08/23 08:38:09;;;;;;;1.33;1.23;;;;;;;;;;5015299;28;20037;-94
2023/08/23 08:40:37;;;;;;;1.83;1.20;;;;;;;;;;5002698;28;20053;-96
2023/08/23 08:43:03;;;;;;;1.38;1.20;;;;;;;;;;5014751;28;20105;-96
2023/08/23 08:45:29;;;;;;;2.00;1.35;;;;;;;;;;5011401;28;20295;-93
2023/08/23 08:47:55;;;;;;;1.48;1.20;;;;;;;;;;5015197;28;20036;-94
2023/08/23 08:50:23;;;;;;;2.28;1.40;;;;;;;;;;5000842;28;20208;-96
2023/08/23 08:52:51;;;;;;;1.67;1.48;;;;;;;;;;5014767;28;20506;-95
2023/08/23 08:55:18;;;;;;;1.75;1.52;;;;;;;;;;5015667;28;20033;-96
2023/08/23 08:57:46;;;;;;;1.85;1.33;;;;;;;;;;5015272;28;20072;-95
2023/08/23 09:00:12;;;;;;;1.73;1.40;;;;;;;;;;5015132;28;20065;-96
2023/08/23 09:02:40;;;;;;;1.63;1.20;;;;;;;;;;5016313;28;20057;-96
2023/08/23 09:05:06;;;;;;;2.17;1.23;;;;;;;;;;5002962;28;20040;-96
2023/08/23 09:07:32;;;;;;;1.13;1.02;;;;;;;;;;5016476;28;20026;-91
2023/08/23 09:09:59;;;;;;;1.98;1.75;;;;;;;;;;5015626;28;20808;-96
2023/08/23 09:12:25;;;;;;;1.85;1.30;;;;;;;;;;5015658;28;20547;-95
2023/08/23 09:14:51;;;;;;;2.25;1.50;;;;;;;;;;5014121;28;20024;-95
2023/08/23 09:17:21;;;;;;;2.30;1.42;;;;;;;;;;5017350;28;20030;-96
2023/08/23 09:19:47;;;;;;;2.03;1.67;;;;;;;;;;5003563;28;20128;-96
2023/08/23 09:22:19;;;;;;;1.55;1.02;;;;;;;;;;5014626;28;20281;-95
2023/08/23 09:24:45;;;;;;;2.53;1.30;;;;;;;;;;5014685;28;20487;-96
2023/08/23 09:27:11;;;;;;;1.08;0.98;;;;;;;;;;5013684;28;20087;-95
2023/08/23 09:29:38;;;;;;;2.53;1.50;;;;;;;;;;5006622;28;20080;-96
2023/08/23 09:32:07;;;;;;;1.30;1.20;;;;;;;;;;5008279;28;20030;-95
2023/08/23 09:34:33;;;;;;;2.05;1.10;;;;;;;;;;5009553;28;20022;-96
2023/08/23 09:37:06;;;;;;;1.17;1.08;;;;;;;;;;5004224;28;20030;-96
2023/08/23 09:39:32;;;;;;;2.05;1.30;;;;;;;;;;5001686;28;20457;-95
2023/08/23 09:42:03;;;;;;;1.20;1.10;;;;;;;;;;4999867;28;20026;-96
2023/08/23 09:44:30;;;;;;;1.23;1.05;;;;;;;;;;5003338;28;20018;-96
2023/08/23 09:47:00;;;;;;;1.30;1.20;;;;;;;;;;5003575;28;20034;-94
2023/08/23 09:49:31;;;;;;;1.75;1.20;;;;;;;;;;5007242;28;20049;-96
2023/08/23 09:51:59;;;;;;;1.50;1.40;;;;;;;;;;5012892;28;20030;-96
2023/08/23 09:54:32;;;;;;;1.33;1.23;;;;;;;;;;5006247;28;20048;-94
2023/08/23 09:56:58;;;;;;;1.20;1.10;;;;;;;;;;5004990;28;20040;-80
2023/08/23 09:59:25;;;;;;;1.08;0.93;;;;;;;;;;5003428;28;20050;-79
2023/08/23 10:01:51;;;;;;;1.15;1.00;;;;;;;;;;5008393;28;20030;-79
2023/08/23 10:04:17;;;;;;;1.27;1.17;;;;;;;;;;5009107;28;20041;-79
2023/08/23 10:06:44;;;;;;;1.15;1.05;;;;;;;;;;5008775;28;20101;-79
2023/08/23 10:09:10;;;;;;;1.23;1.13;;;;;;;;;;5004625;28;20084;-79
2023/08/23 10:11:37;;;;;;;1.38;1.27;;;;;;;;;;5004031;28;20045;-79
2023/08/23 10:14:04;;;;;;;1.40;1.10;;;;;;;;;;5008647;28;20033;-79
2023/08/23 10:16:31;;;;;;;1.70;1.10;;;;;;;;;;5008503;28;20553;-79
2023/08/23 10:18:58;;;;;;;1.02;0.93;;;;;;;;;;5004083;28;20164;-79
2023/08/23 10:21:26;;;;;;;1.38;0.90;;;;;;;;;;5008609;28;20489;-79
2023/08/23 10:23:52;;;;;;;2.22;1.38;;;;;;;;;;5008091;28;20509;-79
2023/08/23 10:26:19;;;;;;;2.13;1.17;;;;;;;;;;5008319;28;20655;-79
2023/08/23 10:28:55;;;;;;;1.95;1.27;;;;;;;;;;5007087;28;20041;-79
2023/08/23 10:31:27;;;;;;;1.10;1.00;;;;;;;;;;5006241;28;20033;-79
2023/08/23 10:33:57;;;;;;;0.80;0.80;;;;;;;;;;5007883;28;20037;-79
2023/08/23 10:36:30;;;;;;;1.13;0.90;;;;;;;;;;5008767;28;20474;-79
2023/08/23 10:38:57;;;;;;;4.22;1.10;;;;;;;;;;5007928;28;20042;-79
2023/08/23 10:41:24;;;;;;;1.05;1.00;;;;;;;;;;5006065;28;20364;-79
2023/08/23 10:43:51;;;;;;;1.02;0.88;;;;;;;;;;5008135;28;20467;-79
2023/08/23 10:46:20;;;;;;;1.02;0.98;;;;;;;;;;5007800;28;20034;-79
2023/08/23 10:48:47;;;;;;;1.00;0.90;;;;;;;;;;5006992;28;20026;-87
2023/08/23 10:51:13;;;;;;;1.27;1.17;;;;;;;;;;5009009;28;20395;-87
2023/08/23 10:53:40;;;;;;;0.85;0.80;;;;;;;;;;5008647;28;20037;-84
2023/08/23 10:56:07;;;;;;;2.88;1.05;;;;;;;;;;5002643;28;20029;-87
2023/08/23 10:58:33;;;;;;;1.98;1.20;;;;;;;;;;5006080;28;20112;-86
2023/08/23 11:00:59;;;;;;;1.02;0.93;;;;;;;;;;5007853;28;20045;-86
2023/08/23 11:03:28;;;;;;;1.00;0.90;;;;;;;;;;5008791;28;20548;-87
2023/08/23 11:05:54;;;;;;;1.20;1.10;;;;;;;;;;5006798;28;20072;-86
2023/08/23 11:08:21;;;;;;;1.33;1.00;;;;;;;;;;5007864;28;20025;-87
2023/08/23 11:10:47;;;;;;;0.90;0.90;;;;;;;;;;5008669;28;20045;-88
2023/08/23 11:13:13;;;;;;;3.05;1.05;;;;;;;;;;5007104;28;20065;-88
2023/08/23 11:15:39;;;;;;;1.20;1.00;;;;;;;;;;5007467;28;20049;-87
2023/08/23 11:18:05;;;;;;;1.42;1.13;;;;;;;;;;5001266;28;20068;-85
2023/08/23 11:20:32;;;;;;;0.98;0.95;;;;;;;;;;5009193;28;20121;-86
2023/08/23 11:22:58;;;;;;;0.80;0.80;;;;;;;;;;5008190;28;20631;-86
2023/08/23 11:25:24;;;;;;;0.93;0.80;;;;;;;;;;5008720;28;20060;-80
2023/08/23 11:27:51;;;;;;;0.88;0.88;;;;;;;;;;5006717;28;20026;-88
2023/08/23 11:30:22;;;;;;;5.15;1.00;;;;;;;;;;5010470;28;20026;-90
2023/08/23 11:32:48;;;;;;;0.95;0.93;;;;;;;;;;5019760;28;20026;-88
2023/08/23 11:35:16;;;;;;;1.25;0.77;;;;;;;;;;5009203;28;20041;-89
2023/08/23 11:37:42;;;;;;;1.70;1.00;;;;;;;;;;5009816;28;20026;-88
2023/08/23 11:40:10;;;;;;;1.10;1.00;;;;;;;;;;5009253;28;20029;-89
2023/08/23 11:42:37;;;;;;;0.85;0.85;;;;;;;;;;5010463;28;20034;-89
2023/08/23 11:45:06;;;;;;;1.30;1.20;;;;;;;;;;5010289;28;20033;-90
2023/08/23 11:47:33;;;;;;;1.05;0.90;;;;;;;;;;5009497;28;20014;-91
2023/08/23 11:49:59;;;;;;;1.00;0.90;;;;;;;;;;5008251;28;20099;-89
2023/08/23 11:52:29;;;;;;;1.52;0.95;;;;;;;;;;5011324;28;20022;-90
2023/08/23 11:54:55;;;;;;;1.17;0.90;;;;;;;;;;5009593;28;20029;-90
2023/08/23 11:57:21;;;;;;;0.93;0.90;;;;;;;;;;5011120;28;20053;-90
2023/08/23 11:59:48;;;;;;;0.80;0.80;;;;;;;;;;5008920;28;20053;-90
2023/08/23 12:02:14;;;;;;;0.80;0.80;;;;;;;;;;5010544;28;20029;-89
2023/08/23 12:04:41;;;;;;;0.90;0.80;;;;;;;;;;5009912;28;20019;-91
2023/08/23 12:07:07;;;;;;;2.40;1.30;;;;;;;;;;5011062;28;20030;-89
2023/08/23 12:09:34;;;;;;;1.30;1.00;;;;;;;;;;5004172;28;20388;-90
2023/08/23 12:12:00;;;;;;;2.42;0.85;;;;;;;;;;5003274;28;20502;-89
2023/08/23 12:14:28;;;;;;;1.00;1.00;;;;;;;;;;5009022;28;20030;-92
2023/08/23 12:16:54;;;;;;;0.77;0.77;;;;;;;;;;5006218;28;20017;-90
2023/08/23 12:19:20;;;;;;;0.70;0.70;;;;;;;;;;5012975;28;20338;-90
2023/08/23 12:21:46;;;;;;;0.80;0.70;;;;;;;;;;5007086;28;20365;-91
2023/08/23 12:24:12;;;;;;;0.95;0.93;;;;;;;;;;5013618;28;20141;-90
2023/08/23 12:26:38;;;;;;;1.05;0.90;;;;;;;;;;5013811;28;20022;-88
2023/08/23 12:29:04;;;;;;;2.03;1.10;;;;;;;;;;5014038;28;20042;-91
2023/08/23 12:31:30;;;;;;;1.00;0.90;;;;;;;;;;5011387;28;20061;-88
2023/08/23 12:33:56;;;;;;;1.02;0.77;;;;;;;;;;5008994;28;20053;-89
2023/08/23 12:36:22;;;;;;;1.10;1.00;;;;;;;;;;5013186;28;20030;-91
2023/08/23 12:38:49;;;;;;;0.80;0.80;;;;;;;;;;5021710;28;20030;-90
2023/08/23 12:41:15;;;;;;;1.60;0.88;;;;;;;;;;5007249;28;20034;-90
2023/08/23 12:43:41;;;;;;;0.77;0.77;;;;;;;;;;5013190;28;20030;-92
2023/08/23 12:46:07;;;;;;;0.85;0.82;;;;;;;;;;5009272;28;20566;-90
2023/08/23 12:48:33;;;;;;;1.42;0.82;;;;;;;;;;5011244;28;20056;-91
2023/08/23 12:50:59;;;;;;;1.75;0.93;;;;;;;;;;5011800;28;20049;-91
2023/08/23 12:53:25;;;;;;;0.70;0.70;;;;;;;;;;5013752;28;20037;-92
2023/08/23 12:55:52;;;;;;;2.55;0.90;;;;;;;;;;5010949;28;20546;-91
2023/08/23 12:58:19;;;;;;;0.70;0.70;;;;;;;;;;5017812;28;20140;-92
2023/08/23 13:00:45;;;;;;;1.17;0.77;;;;;;;;;;5012534;28;20049;-91
2023/08/23 13:03:11;;;;;;;0.60;0.60;;;;;;;;;;5012863;28;20035;-91
2023/08/23 13:05:37;;;;;;;0.73;0.73;;;;;;;;;;5013045;28;20026;-91
2023/08/23 13:08:03;;;;;;;0.75;0.75;;;;;;;;;;5015189;28;20029;-91
2023/08/23 13:10:30;;;;;;;0.80;0.80;;;;;;;;;;5013390;28;20022;-89
2023/08/23 13:12:58;;;;;;;1.10;1.00;;;;;;;;;;5011619;28;20041;-91
2023/08/23 13:15:24;;;;;;;1.13;0.90;;;;;;;;;;5011479;28;20068;-93
2023/08/23 13:17:53;;;;;;;0.90;0.90;;;;;;;;;;5009901;28;20033;-91
2023/08/23 13:20:19;;;;;;;0.75;0.75;;;;;;;;;;5009495;28;20026;-88
2023/08/23 13:22:45;;;;;;;0.73;0.65;;;;;;;;;;5011863;28;20022;-90
2023/08/23 13:25:11;;;;;;;0.88;0.88;;;;;;;;;;5008502;28;20077;-92
2023/08/23 13:27:37;;;;;;;0.70;0.70;;;;;;;;;;5011306;28;20092;-93
2023/08/23 13:30:03;;;;;;;0.63;0.63;;;;;;;;;;5004529;28;20027;-90
2023/08/23 13:32:29;;;;;;;0.77;0.77;;;;;;;;;;5008410;28;20099;-90
2023/08/23 13:34:55;;;;;;;0.80;0.68;;;;;;;;;;5011628;28;20434;-78
2023/08/23 13:37:21;;;;;;;1.00;0.70;;;;;;;;;;5013609;28;20390;-81
2023/08/23 13:39:47;;;;;;;1.73;0.80;;;;;;;;;;5004580;28;20096;-85
2023/08/23 13:42:13;;;;;;;0.60;0.60;;;;;;;;;;5006257;28;20022;-87
2023/08/23 13:44:40;;;;;;;3.30;0.95;;;;;;;;;;5005014;28;20038;-85
2023/08/23 13:47:06;;;;;;;0.82;0.80;;;;;;;;;;5008709;28;20034;-83
2023/08/23 13:49:32;;;;;;;0.57;0.57;;;;;;;;;;5008263;28;20389;-82
2023/08/23 13:51:58;;;;;;;1.05;0.88;;;;;;;;;;5008159;28;20018;-95
2023/08/23 13:54:24;;;;;;;0.98;0.90;;;;;;;;;;5011791;28;20022;-78
2023/08/23 13:56:50;;;;;;;1.10;0.88;;;;;;;;;;5004408;28;20025;-85
2023/08/23 13:59:17;;;;;;;0.70;0.70;;;;;;;;;;5006343;28;20414;-79
2023/08/23 14:01:43;;;;;;;1.08;0.95;;;;;;;;;;5003122;28;20056;-83
2023/08/23 14:04:10;;;;;;;1.75;1.05;;;;;;;;;;5003115;28;20022;-84
2023/08/23 14:06:36;;;;;;;2.53;1.63;;;;;;;;;;5005275;28;20088;-81
2023/08/23 14:09:02;;;;;;;0.90;0.90;;;;;;;;;;5004153;28;20025;-80
2023/08/23 14:11:30;;;;;;;1.30;0.90;;;;;;;;;;5002776;28;20172;-86
2023/08/23 14:13:57;;;;;;;1.10;1.00;;;;;;;;;;5003991;28;20065;-84
2023/08/23 14:16:23;;;;;;;1.58;0.90;;;;;;;;;;5002487;28;20121;-84
2023/08/23 14:18:48;;;;;;;0.70;0.70;;;;;;;;;;4994234;28;20033;-82
2023/08/23 14:21:14;;;;;;;7.13;1.17;;;;;;;;;;4994016;28;20620;-80
2023/08/23 14:23:40;;;;;;;0.65;0.65;;;;;;;;;;4998491;28;20053;-87
2023/08/23 14:26:09;;;;;;;2.03;1.40;;;;;;;;;;5001611;28;20032;-79
2023/08/23 14:28:36;;;;;;;1.33;1.00;;;;;;;;;;5003380;28;20151;-78
2023/08/23 14:31:04;;;;;;;1.50;0.77;;;;;;;;;;5003091;28;20075;-79
2023/08/23 14:33:31;;;;;;;0.70;0.70;;;;;;;;;;5001056;28;20072;-79
2023/08/23 14:35:56;;;;;;;3.70;1.15;;;;;;;;;;5003753;28;20026;-86
2023/08/23 14:38:22;;;;;;;3.53;1.00;;;;;;;;;;4997397;28;20045;-80
2023/08/23 14:40:48;;;;;;;4.43;1.50;;;;;;;;;;4995983;28;20041;-82